sensor_id;sensor_type;location;lat;lon;timestamp;pressure;altitude;pressure_sealevel;temperature;humidity
48778;BME280;34578;0.000;0.000;2022-09-24T00:02:46;96366.28;;;18.84;57.19
48778;BME280;34578;0.000;0.000;2022-09-24T00:07:46;96378.09;;;18.88;57.47
48778;BME280;34578;0.000;0.000;2022-09-24T00:12:46;96368.78;;;18.89;57.54
48778;BME280;34578;0.000;0.000;2022-09-24T00:17:47;96363.69;;;18.89;57.32
48778;BME280;34578;0.000;0.000;2022-09-24T00:22:47;96361.16;;;18.89;57.42
48778;BME280;34578;0.000;0.000;2022-09-24T00:27:47;96357.81;;;18.87;57.38
48778;BME280;34578;0.000;0.000;2022-09-24T00:32:48;96351.91;;;18.86;57.36
48778;BME280;34578;0.000;0.000;2022-09-24T00:37:48;96353.59;;;18.86;57.27
48778;BME280;34578;0.000;0.000;2022-09-24T00:42:48;96351.91;;;18.86;57.49
48778;BME280;34578;0.000;0.000;2022-09-24T00:47:49;96345.13;;;18.87;57.21
48778;BME280;34578;0.000;0.000;2022-09-24T00:52:54;96338.34;;;18.89;57.63
48778;BME280;34578;0.000;0.000;2022-09-24T00:57:58;96327.38;;;18.88;57.33
48778;BME280;34578;0.000;0.000;2022-09-24T01:03:11;96323.97;;;18.89;57.32
48778;BME280;34578;0.000;0.000;2022-09-24T01:08:14;96316.44;;;18.82;57.37
48778;BME280;34578;0.000;0.000;2022-09-24T01:13:27;96332.44;;;18.85;57.36
48778;BME280;34578;0.000;0.000;2022-09-24T01:18:36;96314.69;;;18.87;57.28
48778;BME280;34578;0.000;0.000;2022-09-24T01:28:51;96325.69;;;18.84;57.37
48778;BME280;34578;0.000;0.000;2022-09-24T01:33:58;96329.91;;;18.85;57.29
48778;BME280;34578;0.000;0.000;2022-09-24T01:39:02;96314.69;;;18.87;57.30
48778;BME280;34578;0.000;0.000;2022-09-24T01:44:05;96305.41;;;18.86;57.45
48778;BME280;34578;0.000;0.000;2022-09-24T01:49:07;96294.41;;;18.85;57.44
48778;BME280;34578;0.000;0.000;2022-09-24T01:54:11;96307.94;;;18.87;57.38
48778;BME280;34578;0.000;0.000;2022-09-24T01:59:21;96310.47;;;18.86;57.30
48778;BME280;34578;0.000;0.000;2022-09-24T02:04:24;96294.38;;;18.87;57.13
48778;BME280;34578;0.000;0.000;2022-09-24T02:14:31;96279.25;;;18.78;57.31
48778;BME280;34578;0.000;0.000;2022-09-24T02:19:36;96292.72;;;18.84;57.42
48778;BME280;34578;0.000;0.000;2022-09-24T02:24:47;96300.34;;;18.81;57.65
48778;BME280;34578;0.000;0.000;2022-09-24T02:29:48;96307.94;;;18.86;57.63
48778;BME280;34578;0.000;0.000;2022-09-24T02:34:53;96319.75;;;18.87;57.57
48778;BME280;34578;0.000;0.000;2022-09-24T02:39:55;96306.25;;;18.85;57.56
48778;BME280;34578;0.000;0.000;2022-09-24T02:44:56;96294.38;;;18.87;57.48
48778;BME280;34578;0.000;0.000;2022-09-24T02:49:58;96303.72;;;18.83;57.40
48778;BME280;34578;0.000;0.000;2022-09-24T02:54:59;96328.22;;;18.86;56.99
48778;BME280;34578;0.000;0.000;2022-09-24T02:59:59;96315.53;;;18.84;57.39
48778;BME280;34578;0.000;0.000;2022-09-24T03:05:00;96307.97;;;18.83;57.86
48778;BME280;34578;0.000;0.000;2022-09-24T03:10:00;96313.91;;;18.82;57.34
48778;BME280;34578;0.000;0.000;2022-09-24T03:15:00;96318.94;;;18.85;57.51
48778;BME280;34578;0.000;0.000;2022-09-24T03:20:01;96316.41;;;18.85;57.61
48778;BME280;34578;0.000;0.000;2022-09-24T03:25:01;96319.75;;;18.87;57.38
48778;BME280;34578;0.000;0.000;2022-09-24T03:30:02;96312.16;;;18.87;57.49
48778;BME280;34578;0.000;0.000;2022-09-24T03:35:21;96304.56;;;18.84;57.35
48778;BME280;34578;0.000;0.000;2022-09-24T03:40:22;96306.25;;;18.83;57.37
48778;BME280;34578;0.000;0.000;2022-09-24T03:45:23;96292.81;;;18.71;57.11
48778;BME280;34578;0.000;0.000;2022-09-24T03:50:23;96314.72;;;18.81;57.51
48778;BME280;34578;0.000;0.000;2022-09-24T03:55:23;96308.81;;;18.82;57.42
48778;BME280;34578;0.000;0.000;2022-09-24T04:00:24;96293.59;;;18.82;57.58
48778;BME280;34578;0.000;0.000;2022-09-24T04:05:24;96285.13;;;18.83;57.69
48778;BME280;34578;0.000;0.000;2022-09-24T04:10:25;96274.22;;;18.75;57.54
48778;BME280;34578;0.000;0.000;2022-09-24T04:15:25;96281.72;;;18.85;57.53
48778;BME280;34578;0.000;0.000;2022-09-24T04:20:27;96284.28;;;18.84;57.36
48778;BME280;34578;0.000;0.000;2022-09-24T04:25:29;96271.56;;;18.85;57.40
48778;BME280;34578;0.000;0.000;2022-09-24T04:30:31;96273.28;;;18.85;57.45
48778;BME280;34578;0.000;0.000;2022-09-24T04:35:33;96269.06;;;18.84;57.45
48778;BME280;34578;0.000;0.000;2022-09-24T04:40:37;96273.28;;;18.85;57.24
48778;BME280;34578;0.000;0.000;2022-09-24T04:45:38;96280.06;;;18.81;57.58
48778;BME280;34578;0.000;0.000;2022-09-24T04:50:39;96274.13;;;18.84;57.60
48778;BME280;34578;0.000;0.000;2022-09-24T04:55:39;96276.69;;;18.84;57.77
48778;BME280;34578;0.000;0.000;2022-09-24T05:00:40;96279.22;;;18.84;57.76
48778;BME280;34578;0.000;0.000;2022-09-24T05:05:42;96277.50;;;18.86;57.35
48778;BME280;34578;0.000;0.000;2022-09-24T05:10:42;96273.28;;;18.83;57.72
48778;BME280;34578;0.000;0.000;2022-09-24T05:15:42;96271.59;;;18.82;57.83
48778;BME280;34578;0.000;0.000;2022-09-24T05:20:43;96268.22;;;18.83;57.64
48778;BME280;34578;0.000;0.000;2022-09-24T05:25:43;96270.75;;;18.83;57.55
48778;BME280;34578;0.000;0.000;2022-09-24T05:31:02;96285.16;;;18.80;58.54
48778;BME280;34578;0.000;0.000;2022-09-24T05:36:02;96283.47;;;18.80;57.70
48778;BME280;34578;0.000;0.000;2022-09-24T05:41:03;96286.81;;;18.82;57.94
48778;BME280;34578;0.000;0.000;2022-09-24T05:46:04;96285.13;;;18.83;58.01
48778;BME280;34578;0.000;0.000;2022-09-24T05:51:05;96289.31;;;18.87;57.94
48778;BME280;34578;0.000;0.000;2022-09-24T05:56:06;96299.50;;;18.84;57.63
48778;BME280;34578;0.000;0.000;2022-09-24T06:01:06;96294.44;;;18.84;57.60
48778;BME280;34578;0.000;0.000;2022-09-24T06:06:06;96293.56;;;18.85;57.50
48778;BME280;34578;0.000;0.000;2022-09-24T06:11:07;96297.78;;;18.84;57.66
48778;BME280;34578;0.000;0.000;2022-09-24T06:16:10;96298.69;;;18.82;57.45
48778;BME280;34578;0.000;0.000;2022-09-24T06:21:13;96304.56;;;18.81;57.56
48778;BME280;34578;0.000;0.000;2022-09-24T06:26:14;96306.28;;;18.82;57.45
48778;BME280;34578;0.000;0.000;2022-09-24T06:31:15;96309.66;;;18.82;58.41
48778;BME280;34578;0.000;0.000;2022-09-24T06:36:15;96302.91;;;18.80;58.22
48778;BME280;34578;0.000;0.000;2022-09-24T06:41:15;96318.94;;;18.86;58.19
48778;BME280;34578;0.000;0.000;2022-09-24T06:46:16;96311.31;;;18.85;57.75
48778;BME280;34578;0.000;0.000;2022-09-24T06:51:17;96301.19;;;18.85;57.50
48778;BME280;34578;0.000;0.000;2022-09-24T06:56:17;96315.53;;;18.87;57.56
48778;BME280;34578;0.000;0.000;2022-09-24T07:01:17;96305.38;;;18.87;57.33
48778;BME280;34578;0.000;0.000;2022-09-24T07:06:18;96308.75;;;18.89;57.90
48778;BME280;34578;0.000;0.000;2022-09-24T07:11:18;96312.97;;;18.89;57.27
48778;BME280;34578;0.000;0.000;2022-09-24T07:16:18;96316.41;;;18.85;57.12
48778;BME280;34578;0.000;0.000;2022-09-24T07:21:19;96315.53;;;18.87;58.53
48778;BME280;34578;0.000;0.000;2022-09-24T07:26:19;96321.44;;;18.88;58.81
48778;BME280;34578;0.000;0.000;2022-09-24T07:31:19;96332.41;;;18.93;58.54
48778;BME280;34578;0.000;0.000;2022-09-24T07:36:20;96331.56;;;18.91;57.67
48778;BME280;34578;0.000;0.000;2022-09-24T07:41:20;96334.94;;;18.90;57.40
48778;BME280;34578;0.000;0.000;2022-09-24T07:46:21;96318.94;;;18.85;57.13
48778;BME280;34578;0.000;0.000;2022-09-24T07:51:22;96329.94;;;18.84;58.98
48778;BME280;34578;0.000;0.000;2022-09-24T07:56:23;96333.31;;;18.80;60.05
48778;BME280;34578;0.000;0.000;2022-09-24T08:01:24;96329.94;;;18.81;59.87
48778;BME280;34578;0.000;0.000;2022-09-24T08:06:25;96336.72;;;18.82;59.72
48778;BME280;34578;0.000;0.000;2022-09-24T08:11:26;96338.31;;;18.92;59.95
48778;BME280;34578;0.000;0.000;2022-09-24T08:16:27;96333.22;;;18.95;59.91
48778;BME280;34578;0.000;0.000;2022-09-24T08:21:28;96340.94;;;18.80;59.89
48778;BME280;34578;0.000;0.000;2022-09-24T08:26:28;96341.72;;;18.88;58.82
48778;BME280;34578;0.000;0.000;2022-09-24T08:31:28;96329.13;;;18.82;60.39
48778;BME280;34578;0.000;0.000;2022-09-24T08:36:30;96324.03;;;18.82;60.37
48778;BME280;34578;0.000;0.000;2022-09-24T08:41:46;96316.47;;;18.73;60.65
48778;BME280;34578;0.000;0.000;2022-09-24T08:46:51;96322.38;;;18.78;60.45
48778;BME280;34578;0.000;0.000;2022-09-24T08:52:29;96331.66;;;18.77;59.62
48778;BME280;34578;0.000;0.000;2022-09-24T08:57:39;96336.66;;;18.91;61.16
48778;BME280;34578;0.000;0.000;2022-09-24T09:02:54;96336.66;;;18.88;59.95
48778;BME280;34578;0.000;0.000;2022-09-24T09:08:01;96328.28;;;18.77;60.48
48778;BME280;34578;0.000;0.000;2022-09-24T09:13:20;96340.09;;;18.82;60.46
48778;BME280;34578;0.000;0.000;2022-09-24T09:18:30;96328.28;;;18.77;60.83
48778;BME280;34578;0.000;0.000;2022-09-24T09:23:40;96338.41;;;18.83;59.65
48778;BME280;34578;0.000;0.000;2022-09-24T09:28:46;96349.41;;;18.80;60.50
48778;BME280;34578;0.000;0.000;2022-09-24T09:44:41;96345.09;;;18.90;61.25
48778;BME280;34578;0.000;0.000;2022-09-24T09:49:42;96337.47;;;18.90;60.11
48778;BME280;34578;0.000;0.000;2022-09-24T09:54:42;96331.66;;;18.82;60.50
48778;BME280;34578;0.000;0.000;2022-09-24T09:59:52;96340.13;;;18.79;61.11
48778;BME280;34578;0.000;0.000;2022-09-24T10:04:56;96333.31;;;18.80;60.89
48778;BME280;34578;0.000;0.000;2022-09-24T10:15:18;96325.72;;;18.81;60.58
48778;BME280;34578;0.000;0.000;2022-09-24T10:20:27;96328.25;;;18.83;60.44
48778;BME280;34578;0.000;0.000;2022-09-24T10:25:30;96308.03;;;18.74;60.14
48778;BME280;34578;0.000;0.000;2022-09-24T10:30:31;96325.66;;;18.89;61.11
48778;BME280;34578;0.000;0.000;2022-09-24T10:35:36;96321.38;;;18.94;60.49
48778;BME280;34578;0.000;0.000;2022-09-24T10:40:39;96322.25;;;18.90;59.78
48778;BME280;34578;0.000;0.000;2022-09-24T10:45:52;96317.22;;;18.85;59.86
48778;BME280;34578;0.000;0.000;2022-09-24T10:51:15;96324.81;;;18.87;59.91
48778;BME280;34578;0.000;0.000;2022-09-24T10:56:39;96310.50;;;18.81;59.83
48778;BME280;34578;0.000;0.000;2022-09-24T11:02:04;96316.41;;;18.85;60.03
48778;BME280;34578;0.000;0.000;2022-09-24T11:17:41;96292.66;;;18.92;61.03
48778;BME280;34578;0.000;0.000;2022-09-24T11:33:27;96288.47;;;18.88;60.06
48778;BME280;34578;0.000;0.000;2022-09-24T11:49:23;96259.75;;;18.86;59.17
48778;BME280;34578;0.000;0.000;2022-09-24T11:54:40;96264.78;;;18.89;58.54
48778;BME280;34578;0.000;0.000;2022-09-24T11:59:56;96251.25;;;18.88;58.46
48778;BME280;34578;0.000;0.000;2022-09-24T12:05:11;96243.59;;;18.94;60.71
48778;BME280;34578;0.000;0.000;2022-09-24T12:10:35;96249.47;;;19.01;61.72
48778;BME280;34578;0.000;0.000;2022-09-24T12:15:45;96246.94;;;18.98;60.95
48778;BME280;34578;0.000;0.000;2022-09-24T12:25:50;96242.75;;;18.94;60.18
48778;BME280;34578;0.000;0.000;2022-09-24T12:30:56;96237.69;;;18.92;59.34
48778;BME280;34578;0.000;0.000;2022-09-24T12:36:23;96234.28;;;18.93;59.99
48778;BME280;34578;0.000;0.000;2022-09-24T12:41:31;96232.59;;;18.94;58.84
48778;BME280;34578;0.000;0.000;2022-09-24T12:47:10;96234.28;;;18.93;59.46
48778;BME280;34578;0.000;0.000;2022-09-24T12:52:15;96235.97;;;18.96;60.98
48778;BME280;34578;0.000;0.000;2022-09-24T12:57:20;96225.75;;;19.02;62.31
48778;BME280;34578;0.000;0.000;2022-09-24T13:02:27;96219.06;;;18.96;60.93
48778;BME280;34578;0.000;0.000;2022-09-24T13:07:29;96216.53;;;18.95;60.24
48778;BME280;34578;0.000;0.000;2022-09-24T13:12:31;96215.72;;;18.93;59.72
48778;BME280;34578;0.000;0.000;2022-09-24T13:17:33;96216.56;;;18.92;59.88
48778;BME280;34578;0.000;0.000;2022-09-24T13:22:35;96206.44;;;18.89;59.42
48778;BME280;34578;0.000;0.000;2022-09-24T13:27:38;96203.03;;;18.93;59.31
48778;BME280;34578;0.000;0.000;2022-09-24T13:33:02;96190.34;;;18.91;59.00
48778;BME280;34578;0.000;0.000;2022-09-24T13:38:14;96195.41;;;18.93;59.08
48778;BME280;34578;0.000;0.000;2022-09-24T13:48:41;96192.78;;;19.00;61.36
48778;BME280;34578;0.000;0.000;2022-09-24T13:53:51;96189.44;;;18.97;60.52
48778;BME280;34578;0.000;0.000;2022-09-24T13:59:08;96177.63;;;18.96;59.97
48778;BME280;34578;0.000;0.000;2022-09-24T14:04:19;96164.13;;;18.92;59.62
48778;BME280;34578;0.000;0.000;2022-09-24T14:09:38;96168.34;;;18.95;60.99
48778;BME280;34578;0.000;0.000;2022-09-24T14:14:42;96172.59;;;18.93;60.09
48778;BME280;34578;0.000;0.000;2022-09-24T14:19:43;96175.13;;;18.93;60.45
48778;BME280;34578;0.000;0.000;2022-09-24T14:24:53;96174.25;;;18.94;60.93
48778;BME280;34578;0.000;0.000;2022-09-24T14:35:04;96161.50;;;19.01;61.80
48778;BME280;34578;0.000;0.000;2022-09-24T14:40:18;96161.53;;;18.97;60.61
48778;BME280;34578;0.000;0.000;2022-09-24T14:45:23;96153.13;;;18.95;60.55
48778;BME280;34578;0.000;0.000;2022-09-24T14:50:37;96155.66;;;18.95;60.59
48778;BME280;34578;0.000;0.000;2022-09-24T14:55:41;96164.97;;;18.94;60.69
48778;BME280;34578;0.000;0.000;2022-09-24T15:00:50;96159.03;;;18.94;60.23
48778;BME280;34578;0.000;0.000;2022-09-24T15:06:14;96168.38;;;18.92;60.50
48778;BME280;34578;0.000;0.000;2022-09-24T15:11:16;96150.69;;;18.87;60.31
48778;BME280;34578;0.000;0.000;2022-09-24T15:16:35;96159.00;;;18.97;61.49
48778;BME280;34578;0.000;0.000;2022-09-24T15:21:36;96162.28;;;19.05;61.44
48778;BME280;34578;0.000;0.000;2022-09-24T15:26:39;96161.53;;;19.00;61.17
48778;BME280;34578;0.000;0.000;2022-09-24T15:31:41;96170.00;;;18.97;60.61
48778;BME280;34578;0.000;0.000;2022-09-24T15:36:41;96180.97;;;18.98;60.56
48778;BME280;34578;0.000;0.000;2022-09-24T15:41:42;96172.53;;;18.99;60.36
48778;BME280;34578;0.000;0.000;2022-09-24T15:46:42;96164.13;;;18.95;60.58
48778;BME280;34578;0.000;0.000;2022-09-24T15:51:42;96146.41;;;18.91;60.31
48778;BME280;34578;0.000;0.000;2022-09-24T15:56:43;96159.00;;;18.97;60.06
48778;BME280;34578;0.000;0.000;2022-09-24T16:01:46;96160.69;;;18.98;59.88
48778;BME280;34578;0.000;0.000;2022-09-24T16:06:48;96157.28;;;19.02;61.88
48778;BME280;34578;0.000;0.000;2022-09-24T16:11:49;96157.22;;;19.05;61.59
48778;BME280;34578;0.000;0.000;2022-09-24T16:16:49;96175.03;;;19.03;61.00
48778;BME280;34578;0.000;0.000;2022-09-24T16:21:50;96167.41;;;19.03;60.74
48778;BME280;34578;0.000;0.000;2022-09-24T16:26:51;96170.81;;;19.01;60.89
48778;BME280;34578;0.000;0.000;2022-09-24T16:31:52;96173.41;;;18.96;60.79
48778;BME280;34578;0.000;0.000;2022-09-24T16:36:52;96175.91;;;18.98;60.68
48778;BME280;34578;0.000;0.000;2022-09-24T16:41:53;96183.50;;;18.99;61.18
48778;BME280;34578;0.000;0.000;2022-09-24T16:46:53;96184.47;;;18.91;61.16
48778;BME280;34578;0.000;0.000;2022-09-24T16:51:54;96185.16;;;19.03;62.63
48778;BME280;34578;0.000;0.000;2022-09-24T16:56:55;96192.72;;;19.08;62.79
48778;BME280;34578;0.000;0.000;2022-09-24T17:01:56;96191.91;;;19.04;61.68
48778;BME280;34578;0.000;0.000;2022-09-24T17:06:57;96190.25;;;19.02;61.23
48778;BME280;34578;0.000;0.000;2022-09-24T17:11:58;96198.69;;;19.02;61.40
48778;BME280;34578;0.000;0.000;2022-09-24T17:16:59;96195.31;;;19.00;60.99
48778;BME280;34578;0.000;0.000;2022-09-24T17:22:00;96202.97;;;18.99;60.88
48778;BME280;34578;0.000;0.000;2022-09-24T17:27:00;96208.00;;;19.00;60.63
48778;BME280;34578;0.000;0.000;2022-09-24T17:32:01;96205.53;;;18.97;61.51
48778;BME280;34578;0.000;0.000;2022-09-24T17:37:01;96204.56;;;19.06;63.19
48778;BME280;34578;0.000;0.000;2022-09-24T17:42:02;96207.09;;;19.07;63.54
48778;BME280;34578;0.000;0.000;2022-09-24T17:47:02;96224.09;;;19.01;62.30
48778;BME280;34578;0.000;0.000;2022-09-24T17:52:04;96237.59;;;19.01;61.50
48778;BME280;34578;0.000;0.000;2022-09-24T17:57:04;96245.19;;;19.03;61.58
48778;BME280;34578;0.000;0.000;2022-09-24T18:02:05;96241.84;;;19.01;61.09
48778;BME280;34578;0.000;0.000;2022-09-24T18:07:05;96253.66;;;19.02;61.29
48778;BME280;34578;0.000;0.000;2022-09-24T18:12:06;96252.00;;;19.01;60.97
48778;BME280;34578;0.000;0.000;2022-09-24T18:17:06;96266.41;;;18.97;60.80
48778;BME280;34578;0.000;0.000;2022-09-24T18:22:07;96266.34;;;19.03;62.62
48778;BME280;34578;0.000;0.000;2022-09-24T18:27:08;96270.53;;;19.09;62.51
48778;BME280;34578;0.000;0.000;2022-09-24T18:32:09;96272.25;;;19.04;61.44
48778;BME280;34578;0.000;0.000;2022-09-24T18:37:09;96274.81;;;19.01;61.08
48778;BME280;34578;0.000;0.000;2022-09-24T18:42:09;96279.03;;;19.02;61.02
48778;BME280;34578;0.000;0.000;2022-09-24T18:47:10;96271.44;;;19.02;61.14
48778;BME280;34578;0.000;0.000;2022-09-24T18:52:13;96273.97;;;19.02;61.00
48778;BME280;34578;0.000;0.000;2022-09-24T18:57:14;96282.44;;;18.99;60.93
48778;BME280;34578;0.000;0.000;2022-09-24T19:02:14;96278.22;;;18.97;60.74
48778;BME280;34578;0.000;0.000;2022-09-24T19:07:14;96284.13;;;19.02;61.73
48778;BME280;34578;0.000;0.000;2022-09-24T19:12:15;96295.03;;;19.10;62.58
48778;BME280;34578;0.000;0.000;2022-09-24T19:17:15;96279.03;;;19.03;61.31
48778;BME280;34578;0.000;0.000;2022-09-24T19:22:15;96269.72;;;19.02;61.23
48778;BME280;34578;0.000;0.000;2022-09-24T19:27:16;96276.50;;;19.00;61.24
48778;BME280;34578;0.000;0.000;2022-09-24T19:32:16;96279.03;;;19.02;61.32
48778;BME280;34578;0.000;0.000;2022-09-24T19:37:16;96279.03;;;19.02;61.63
48778;BME280;34578;0.000;0.000;2022-09-24T19:42:17;96277.38;;;19.01;61.69
48778;BME280;34578;0.000;0.000;2022-09-24T19:47:17;96284.13;;;19.00;61.54
48778;BME280;34578;0.000;0.000;2022-09-24T19:52:18;96284.94;;;19.04;62.85
48778;BME280;34578;0.000;0.000;2022-09-24T19:57:19;96285.75;;;19.09;63.00
48778;BME280;34578;0.000;0.000;2022-09-24T20:02:19;96279.00;;;19.05;62.03
48778;BME280;34578;0.000;0.000;2022-09-24T20:07:19;96273.97;;;19.02;61.73
48778;BME280;34578;0.000;0.000;2022-09-24T20:12:20;96276.50;;;19.03;61.41
48778;BME280;34578;0.000;0.000;2022-09-24T20:17:20;96268.91;;;19.02;61.40
48778;BME280;34578;0.000;0.000;2022-09-24T20:22:21;96272.28;;;19.01;61.71
48778;BME280;34578;0.000;0.000;2022-09-24T20:27:21;96273.97;;;19.02;61.26
48778;BME280;34578;0.000;0.000;2022-09-24T20:32:40;96268.94;;;18.99;61.78
48778;BME280;34578;0.000;0.000;2022-09-24T20:37:43;96272.28;;;19.01;61.65
48778;BME280;34578;0.000;0.000;2022-09-24T20:42:43;96273.94;;;19.05;62.94
48778;BME280;34578;0.000;0.000;2022-09-24T20:47:44;96287.44;;;19.10;62.93
48778;BME280;34578;0.000;0.000;2022-09-24T20:52:45;96277.31;;;19.04;62.09
48778;BME280;34578;0.000;0.000;2022-09-24T20:57:46;96290.84;;;19.06;61.54
48778;BME280;34578;0.000;0.000;2022-09-24T21:02:48;96288.28;;;19.06;61.36
48778;BME280;34578;0.000;0.000;2022-09-24T21:07:48;96296.75;;;19.05;61.41
48778;BME280;34578;0.000;0.000;2022-09-24T21:12:48;96279.88;;;19.02;61.32
48778;BME280;34578;0.000;0.000;2022-09-24T21:17:49;96288.34;;;19.03;61.32
48778;BME280;34578;0.000;0.000;2022-09-24T21:22:50;96290.00;;;19.02;60.98
48778;BME280;34578;0.000;0.000;2022-09-24T21:27:51;96284.94;;;19.02;61.37
48778;BME280;34578;0.000;0.000;2022-09-24T21:32:52;96283.25;;;19.03;63.05
48778;BME280;34578;0.000;0.000;2022-09-24T21:37:52;96272.25;;;19.04;62.24
48778;BME280;34578;0.000;0.000;2022-09-24T21:42:52;96278.19;;;19.01;61.61
48778;BME280;34578;0.000;0.000;2022-09-24T21:47:53;96273.13;;;19.01;61.49
48778;BME280;34578;0.000;0.000;2022-09-24T21:52:54;96278.19;;;19.03;61.18
48778;BME280;34578;0.000;0.000;2022-09-24T21:57:54;96280.72;;;19.03;61.32
48778;BME280;34578;0.000;0.000;2022-09-24T22:02:54;96284.13;;;19.02;61.19
48778;BME280;34578;0.000;0.000;2022-09-24T22:07:54;96273.16;;;19.00;61.09
48778;BME280;34578;0.000;0.000;2022-09-24T22:12:55;96279.91;;;19.01;61.16
48778;BME280;34578;0.000;0.000;2022-09-24T22:17:56;96284.97;;;18.99;61.58
48778;BME280;34578;0.000;0.000;2022-09-24T22:22:56;96278.19;;;19.03;62.72
48778;BME280;34578;0.000;0.000;2022-09-24T22:27:57;96275.59;;;19.06;62.19
48778;BME280;34578;0.000;0.000;2022-09-24T22:32:57;96273.97;;;19.02;61.07
48778;BME280;34578;0.000;0.000;2022-09-24T22:37:57;96277.38;;;19.01;61.16
48778;BME280;34578;0.000;0.000;2022-09-24T22:42:58;96279.09;;;18.99;61.21
48778;BME280;34578;0.000;0.000;2022-09-24T22:47:58;96282.44;;;19.01;61.17
48778;BME280;34578;0.000;0.000;2022-09-24T22:52:58;96270.63;;;19.00;60.80
48778;BME280;34578;0.000;0.000;2022-09-24T22:58:01;96272.28;;;19.01;61.34
48778;BME280;34578;0.000;0.000;2022-09-24T23:03:02;96257.94;;;19.00;61.02
48778;BME280;34578;0.000;0.000;2022-09-24T23:08:02;96260.47;;;19.00;62.03
48778;BME280;34578;0.000;0.000;2022-09-24T23:13:03;96249.44;;;19.02;62.44
48778;BME280;34578;0.000;0.000;2022-09-24T23:18:03;96250.22;;;19.06;62.04
48778;BME280;34578;0.000;0.000;2022-09-24T23:23:04;96252.81;;;19.04;60.91
48778;BME280;34578;0.000;0.000;2022-09-24T23:28:04;96253.66;;;19.02;60.91
48778;BME280;34578;0.000;0.000;2022-09-24T23:33:04;96248.59;;;19.00;60.99
48778;BME280;34578;0.000;0.000;2022-09-24T23:38:05;96241.84;;;18.99;61.06
48778;BME280;34578;0.000;0.000;2022-09-24T23:43:05;96253.72;;;18.99;61.03
48778;BME280;34578;0.000;0.000;2022-09-24T23:48:06;96246.94;;;18.98;61.34
48778;BME280;34578;0.000;0.000;2022-09-24T23:53:06;96262.16;;;18.98;61.18
48778;BME280;34578;0.000;0.000;2022-09-24T23:58:07;96254.53;;;18.99;62.14
